createdAt,value
2023-01-13T00:00:02.011Z,5.4
2023-01-13T00:01:09.096Z,5.4
2023-01-13T00:02:00.849Z,5.4
2023-01-13T00:03:00.777Z,5.4
2023-01-13T00:04:00.778Z,5.4
2023-01-13T00:05:00.829Z,5.4
2023-01-13T00:06:00.791Z,5.4
2023-01-13T00:07:00.942Z,5.4
2023-01-13T00:08:00.865Z,5.4
2023-01-13T00:09:00.783Z,5.4
2023-01-13T00:10:00.948Z,5.4
2023-01-13T00:11:00.797Z,5.4
2023-01-13T00:12:00.777Z,5.4
2023-01-13T00:13:02.157Z,5.4
2023-01-13T00:14:00.768Z,5.4
2023-01-13T00:15:00.778Z,5.6
2023-01-13T00:16:03.474Z,5.6
2023-01-13T00:17:01.494Z,5.6
2023-01-13T00:18:00.761Z,5.6
2023-01-13T00:19:00.836Z,5.6
2023-01-13T00:20:00.847Z,5.6
2023-01-13T00:21:01.988Z,5.6
2023-01-13T00:22:00.788Z,5.6
2023-01-13T00:23:00.769Z,5.6
2023-01-13T00:24:00.838Z,5.6
2023-01-13T00:25:01.526Z,5.7
2023-01-13T00:26:03.229Z,5.7
2023-01-13T00:27:00.793Z,5.7
2023-01-13T00:28:00.777Z,5.7
2023-01-13T00:29:01.081Z,5.7
2023-01-13T00:30:01.078Z,5.7
2023-01-13T00:31:04.734Z,5.7
2023-01-13T00:32:00.964Z,5.7
2023-01-13T00:33:00.763Z,5.7
2023-01-13T00:34:00.983Z,5.7
2023-01-13T00:35:00.818Z,4.1
2023-01-13T00:36:01.567Z,4.1
2023-01-13T00:37:00.807Z,4.1
2023-01-13T00:38:00.789Z,4.1
2023-01-13T00:39:00.780Z,4.1
2023-01-13T00:40:00.786Z,4.1
2023-01-13T00:41:02.947Z,4.1
2023-01-13T00:42:00.797Z,4.1
2023-01-13T00:43:00.991Z,4.1
2023-01-13T00:44:00.781Z,4.1
2023-01-13T00:45:00.927Z,4.4
2023-01-13T00:46:01.469Z,4.4
2023-01-13T00:47:00.769Z,4.4
2023-01-13T00:48:00.771Z,4.4
2023-01-13T00:49:00.895Z,4.4
2023-01-13T00:50:00.770Z,4.4
2023-01-13T00:51:02.626Z,4.4
2023-01-13T00:52:00.764Z,4.4
2023-01-13T00:53:01.030Z,4.4
2023-01-13T00:54:00.973Z,4.4
2023-01-13T00:55:00.763Z,4.1
2023-01-13T00:56:00.737Z,4.1
2023-01-13T00:57:00.924Z,4.1
2023-01-13T00:58:01.326Z,4.1
2023-01-13T00:59:00.749Z,4.1
2023-01-13T01:00:00.892Z,4.1
2023-01-13T01:01:01.303Z,4.1
2023-01-13T01:02:00.996Z,4.1
2023-01-13T01:03:00.771Z,4.1
2023-01-13T01:04:00.805Z,4.1
2023-01-13T01:05:00.995Z,4.1
2023-01-13T01:06:05.980Z,4.1
2023-01-13T01:07:00.747Z,4.1
2023-01-13T01:08:00.854Z,4.1
2023-01-13T01:09:01.199Z,4.1
2023-01-13T01:10:00.749Z,4.1
2023-01-13T01:11:01.743Z,4.1
2023-01-13T01:12:00.971Z,4.1
2023-01-13T01:13:00.768Z,4.1
2023-01-13T01:14:02.012Z,4.1
2023-01-13T01:15:00.837Z,3.6
2023-01-13T01:16:03.174Z,3.6
2023-01-13T01:17:00.760Z,3.6
2023-01-13T01:18:00.753Z,3.6
2023-01-13T01:19:00.785Z,3.6
2023-01-13T01:20:00.967Z,3.6
2023-01-13T01:21:01.301Z,3.6
2023-01-13T01:22:00.744Z,3.6
2023-01-13T01:23:00.753Z,3.6
2023-01-13T01:24:01.987Z,3.6
2023-01-13T01:25:00.781Z,3.4
2023-01-13T01:35:01.103Z,3.6
2023-01-13T01:36:01.228Z,3.6
2023-01-13T01:37:00.761Z,3.6
2023-01-13T01:38:00.752Z,3.6
2023-01-13T01:39:00.897Z,3.6
2023-01-13T01:40:00.765Z,3.6
2023-01-13T01:41:00.766Z,3.6
2023-01-13T01:42:00.803Z,3.6
2023-01-13T01:43:00.763Z,3.6
2023-01-13T01:44:04.093Z,3.6
2023-01-13T01:45:09.553Z,2.7
2023-01-13T01:46:01.142Z,2.7
2023-01-13T01:47:00.841Z,2.7
2023-01-13T01:48:03.253Z,2.7
2023-01-13T01:49:10.623Z,2.7
2023-01-13T01:50:02.467Z,2.7
2023-01-13T01:51:01.071Z,2.7
2023-01-13T01:52:05.530Z,2.7
2023-01-13T01:53:06.296Z,2.7
2023-01-13T01:54:01.589Z,2.7
2023-01-13T01:55:05.257Z,3.0
2023-01-13T01:56:01.114Z,3.0
2023-01-13T01:57:00.962Z,3.0
2023-01-13T01:58:04.709Z,3.0
2023-01-13T01:59:00.935Z,3.0
2023-01-13T02:00:01.100Z,3.0
2023-01-13T02:01:00.893Z,3.0
2023-01-13T02:02:01.143Z,3.0
2023-01-13T02:03:02.320Z,3.0
2023-01-13T02:04:02.899Z,3.0
2023-01-13T02:05:01.115Z,3.3
2023-01-13T02:06:01.071Z,3.3
2023-01-13T02:07:02.529Z,3.3
2023-01-13T02:08:01.415Z,3.3
2023-01-13T02:09:00.783Z,3.3
2023-01-13T02:10:02.682Z,3.3
2023-01-13T02:11:00.740Z,3.3
2023-01-13T02:12:00.757Z,3.3
2023-01-13T02:13:03.301Z,3.3
2023-01-13T02:14:00.874Z,3.3
2023-01-13T02:15:00.722Z,3.4
2023-01-13T02:16:04.499Z,3.4
2023-01-13T02:17:10.622Z,3.4
2023-01-13T02:18:10.620Z,3.4
2023-01-13T02:19:10.622Z,3.4
2023-01-13T02:20:10.616Z,3.4
2023-01-13T02:21:10.683Z,3.4
2023-01-13T02:22:10.621Z,3.4
2023-01-13T02:23:00.744Z,3.4
2023-01-13T02:24:10.614Z,3.4
2023-01-13T02:25:01.742Z,3.1
2023-01-13T02:26:08.109Z,3.1
2023-01-13T02:27:04.067Z,3.1
2023-01-13T02:28:10.611Z,3.1
2023-01-13T02:29:09.241Z,3.1
2023-01-13T02:30:01.822Z,3.1
2023-01-13T02:31:01.752Z,3.1
2023-01-13T02:32:08.071Z,3.1
2023-01-13T02:33:10.614Z,3.1
2023-01-13T02:34:06.825Z,3.1
2023-01-13T02:35:10.611Z,3.1
2023-01-13T02:36:01.764Z,3.1
2023-01-13T02:37:01.350Z,3.1
2023-01-13T02:38:01.868Z,3.1
2023-01-13T02:39:04.181Z,3.1
2023-01-13T02:40:05.011Z,3.1
2023-01-13T02:41:06.346Z,3.1
2023-01-13T02:42:10.617Z,3.1
2023-01-13T02:43:03.369Z,3.1
2023-01-13T02:44:02.576Z,3.1
2023-01-13T02:45:03.487Z,2.4
2023-01-13T02:46:04.095Z,2.4
2023-01-13T02:47:07.127Z,2.4
2023-01-13T02:48:03.741Z,2.4
2023-01-13T02:49:03.946Z,2.4
2023-01-13T02:50:02.795Z,2.4
2023-01-13T02:51:05.244Z,2.4
2023-01-13T02:52:05.889Z,2.4
2023-01-13T02:53:04.464Z,2.4
2023-01-13T02:54:04.027Z,2.4
2023-01-13T02:55:04.511Z,2.3
2023-01-13T02:56:02.255Z,2.3
2023-01-13T02:57:01.630Z,2.3
2023-01-13T02:58:03.494Z,2.3
2023-01-13T02:59:01.042Z,2.3
2023-01-13T03:00:02.676Z,2.3
2023-01-13T03:01:01.058Z,2.3
2023-01-13T03:02:01.229Z,2.3
2023-01-13T03:03:00.857Z,2.3
2023-01-13T03:04:10.664Z,2.3
2023-01-13T03:05:00.847Z,2.5
2023-01-13T03:06:10.615Z,2.5
2023-01-13T03:07:06.379Z,2.5
2023-01-13T03:08:10.721Z,2.5
2023-01-13T03:09:05.795Z,2.5
2023-01-13T03:10:09.381Z,2.5
2023-01-13T03:11:04.778Z,2.5
2023-01-13T03:12:00.718Z,2.5
2023-01-13T03:13:02.004Z,2.5
2023-01-13T03:14:10.330Z,2.5
2023-01-13T03:15:10.760Z,2.1
2023-01-13T03:16:10.693Z,2.1
2023-01-13T03:17:10.644Z,2.1
2023-01-13T03:18:07.919Z,2.1
2023-01-13T03:19:00.722Z,2.1
2023-01-13T03:20:00.748Z,2.1
2023-01-13T03:21:06.710Z,2.1
2023-01-13T03:22:01.812Z,2.1
2023-01-13T03:23:01.743Z,2.1
2023-01-13T03:24:05.677Z,2.1
2023-01-13T03:25:01.770Z,2.6
2023-01-13T03:26:04.084Z,2.6
2023-01-13T03:27:04.752Z,2.6
2023-01-13T03:28:04.178Z,2.6
2023-01-13T03:29:08.093Z,2.6
2023-01-13T03:30:01.781Z,2.6
2023-01-13T03:31:04.132Z,2.6
2023-01-13T03:32:07.394Z,2.6
2023-01-13T03:33:04.676Z,2.6
2023-01-13T03:34:03.461Z,2.6
2023-01-13T03:35:01.766Z,2.4
2023-01-13T03:36:03.243Z,2.4
2023-01-13T03:37:02.628Z,2.4
2023-01-13T03:38:05.267Z,2.4
2023-01-13T03:39:06.869Z,2.4
2023-01-13T03:40:05.580Z,2.4
2023-01-13T03:41:04.938Z,2.4
2023-01-13T03:42:04.552Z,2.4
2023-01-13T03:43:05.371Z,2.4
2023-01-13T03:44:05.578Z,2.4
2023-01-13T03:45:11.286Z,2.2
2023-01-13T03:46:03.829Z,2.2
2023-01-13T03:47:04.106Z,2.2
2023-01-13T03:48:05.208Z,2.2
2023-01-13T03:49:02.429Z,2.2
2023-01-13T03:50:05.455Z,2.2
2023-01-13T03:51:04.876Z,2.2
2023-01-13T03:52:03.249Z,2.2
2023-01-13T03:53:06.159Z,2.2
2023-01-13T03:54:03.995Z,2.2
2023-01-13T03:55:04.194Z,1.8
2023-01-13T03:56:06.484Z,1.8
2023-01-13T03:57:06.120Z,1.8
2023-01-13T03:58:04.911Z,1.8
2023-01-13T03:59:02.600Z,1.8
2023-01-13T04:00:02.291Z,1.8
2023-01-13T04:01:10.812Z,1.8
2023-01-13T04:02:04.284Z,1.8
2023-01-13T04:03:06.179Z,1.8
2023-01-13T04:04:06.317Z,1.8
2023-01-13T04:05:02.565Z,2.8
2023-01-13T04:06:09.486Z,2.8
2023-01-13T04:07:00.759Z,2.8
2023-01-13T04:08:08.319Z,2.8
2023-01-13T04:09:05.578Z,2.8
2023-01-13T04:10:02.579Z,2.8
2023-01-13T04:11:05.325Z,2.8
2023-01-13T04:12:06.151Z,2.8
2023-01-13T04:13:03.108Z,2.8
2023-01-13T04:14:02.406Z,2.8
2023-01-13T04:15:00.968Z,3.4
2023-01-13T04:16:00.980Z,3.4
2023-01-13T04:17:00.887Z,3.4
2023-01-13T04:18:10.652Z,3.4
2023-01-13T04:19:00.743Z,3.4
2023-01-13T04:20:00.754Z,3.4
2023-01-13T04:21:00.843Z,3.4
2023-01-13T04:22:01.112Z,3.4
2023-01-13T04:23:01.009Z,3.4
2023-01-13T04:24:00.784Z,3.4
2023-01-13T04:25:00.771Z,3.9
2023-01-13T04:26:00.788Z,3.9
2023-01-13T04:27:00.888Z,3.9
2023-01-13T04:28:00.986Z,3.9
2023-01-13T04:29:00.745Z,3.9
2023-01-13T04:30:00.787Z,3.9
2023-01-13T04:31:00.837Z,3.9
2023-01-13T04:32:00.743Z,3.9
2023-01-13T04:33:01.014Z,3.9
2023-01-13T04:34:00.778Z,3.9
2023-01-13T04:35:00.784Z,3.7
2023-01-13T04:36:00.783Z,3.7
2023-01-13T04:37:00.728Z,3.7
2023-01-13T04:38:01.651Z,3.7
2023-01-13T04:39:01.102Z,3.7
2023-01-13T04:40:00.741Z,3.7
2023-01-13T04:41:00.771Z,3.7
2023-01-13T04:42:00.811Z,3.7
2023-01-13T04:43:00.918Z,3.7
2023-01-13T04:44:01.006Z,3.7
2023-01-13T04:45:00.849Z,3.2
2023-01-13T04:46:00.838Z,3.2
2023-01-13T04:47:01.476Z,3.2
2023-01-13T04:48:00.793Z,3.2
2023-01-13T04:49:00.765Z,3.2
2023-01-13T04:50:00.793Z,3.2
2023-01-13T04:51:00.760Z,3.2
2023-01-13T04:52:00.755Z,3.2
2023-01-13T04:53:00.795Z,3.2
2023-01-13T04:54:00.732Z,3.2
2023-01-13T04:55:00.915Z,3.0
2023-01-13T04:56:00.819Z,3.0
2023-01-13T04:57:00.751Z,3.0
2023-01-13T04:58:01.879Z,3.0
2023-01-13T04:59:00.752Z,3.0
2023-01-13T05:00:00.794Z,3.0
2023-01-13T05:01:00.840Z,3.0
2023-01-13T05:02:00.848Z,3.0
2023-01-13T05:03:01.207Z,3.0
2023-01-13T05:04:00.799Z,3.0
2023-01-13T05:05:01.604Z,2.9
2023-01-13T05:06:00.759Z,2.9
2023-01-13T05:07:00.783Z,2.9
2023-01-13T05:08:00.799Z,2.9
2023-01-13T05:09:00.772Z,2.9
2023-01-13T05:10:00.810Z,2.9
2023-01-13T05:11:00.776Z,2.9
2023-01-13T05:12:00.753Z,2.9
2023-01-13T05:13:00.967Z,2.9
2023-01-13T05:14:01.006Z,2.9
2023-01-13T05:15:00.765Z,2.9
2023-01-13T05:16:01.068Z,2.9
2023-01-13T05:17:00.789Z,2.9
2023-01-13T05:18:01.096Z,2.9
2023-01-13T05:19:00.814Z,2.9
2023-01-13T05:20:00.871Z,2.9
2023-01-13T05:21:00.782Z,2.9
2023-01-13T05:22:01.298Z,2.9
2023-01-13T05:23:00.768Z,2.9
2023-01-13T05:24:00.860Z,2.9
2023-01-13T05:25:00.759Z,3.4
2023-01-13T05:26:01.084Z,3.4
2023-01-13T05:27:00.889Z,3.4
2023-01-13T05:28:00.790Z,3.4
2023-01-13T05:29:00.768Z,3.4
2023-01-13T05:30:00.938Z,3.4
2023-01-13T05:31:00.862Z,3.4
2023-01-13T05:32:00.783Z,3.4
2023-01-13T05:33:00.784Z,3.4
2023-01-13T05:34:00.804Z,3.4
2023-01-13T05:35:01.016Z,3.7
2023-01-13T05:36:01.237Z,3.7
2023-01-13T05:37:00.775Z,3.7
2023-01-13T05:38:00.884Z,3.7
2023-01-13T05:39:00.744Z,3.7
2023-01-13T05:40:00.842Z,3.7
2023-01-13T05:41:00.899Z,3.7
2023-01-13T05:42:00.749Z,3.7
2023-01-13T05:43:05.620Z,3.7
2023-01-13T05:44:00.790Z,3.7
2023-01-13T05:45:00.860Z,3.7
2023-01-13T05:46:00.849Z,3.4
2023-01-13T05:47:00.792Z,3.4
2023-01-13T05:48:00.744Z,3.4
2023-01-13T05:49:00.946Z,3.4
2023-01-13T05:50:00.936Z,3.4
2023-01-13T05:51:01.664Z,3.4
2023-01-13T05:52:00.774Z,3.4
2023-01-13T05:53:01.385Z,3.4
2023-01-13T05:54:00.794Z,3.4
2023-01-13T05:55:00.807Z,3.4
2023-01-13T05:56:04.306Z,2.7
2023-01-13T05:57:00.772Z,2.7
2023-01-13T05:58:00.805Z,2.7
2023-01-13T05:59:00.766Z,2.7
2023-01-13T06:00:01.897Z,2.7
2023-01-13T06:01:01.946Z,2.7
2023-01-13T06:02:00.907Z,2.7
2023-01-13T06:03:00.873Z,2.7
2023-01-13T06:04:00.760Z,2.7
2023-01-13T06:05:00.775Z,2.7
2023-01-13T06:06:00.879Z,2.8
2023-01-13T06:07:00.796Z,2.8
2023-01-13T06:08:01.850Z,2.8
2023-01-13T06:09:00.776Z,2.8
2023-01-13T06:10:00.753Z,2.8
2023-01-13T06:11:00.908Z,2.8
2023-01-13T06:12:00.768Z,2.8
2023-01-13T06:13:01.267Z,2.8
2023-01-13T06:14:00.781Z,2.8
2023-01-13T06:15:00.790Z,2.8
2023-01-13T06:16:00.860Z,3.0
2023-01-13T06:17:00.750Z,3.0
2023-01-13T06:18:02.709Z,3.0
2023-01-13T06:19:00.768Z,3.0
2023-01-13T06:20:00.823Z,3.0
2023-01-13T06:21:00.794Z,3.0
2023-01-13T06:22:07.494Z,3.0
2023-01-13T06:23:00.763Z,3.0
2023-01-13T06:24:00.786Z,3.0
2023-01-13T06:25:00.755Z,3.0
2023-01-13T06:26:10.625Z,2.9
2023-01-13T06:27:00.854Z,2.9
2023-01-13T06:28:00.967Z,2.9
2023-01-13T06:29:00.911Z,2.9
2023-01-13T06:30:00.781Z,2.9
2023-01-13T06:31:02.877Z,2.9
2023-01-13T06:32:02.732Z,2.9
2023-01-13T06:33:03.127Z,2.9
2023-01-13T06:34:05.021Z,2.9
2023-01-13T06:35:04.766Z,2.9
2023-01-13T06:36:03.370Z,3.6
2023-01-13T06:37:01.670Z,3.6
2023-01-13T06:38:02.474Z,3.6
2023-01-13T06:39:01.835Z,3.6
2023-01-13T06:40:01.687Z,3.6
2023-01-13T06:41:00.907Z,3.6
2023-01-13T06:42:02.354Z,3.6
2023-01-13T06:43:01.872Z,3.6
2023-01-13T06:44:01.061Z,3.6
2023-01-13T06:45:00.876Z,3.6
2023-01-13T06:46:01.184Z,4.4
2023-01-13T06:47:00.873Z,4.4
2023-01-13T06:48:00.800Z,4.4
2023-01-13T06:49:00.743Z,4.4
2023-01-13T06:50:00.779Z,4.4
2023-01-13T06:51:01.567Z,4.4
2023-01-13T06:52:00.804Z,4.4
2023-01-13T06:53:01.206Z,4.4
2023-01-13T06:54:00.757Z,4.4
2023-01-13T06:55:01.125Z,4.4
2023-01-13T06:56:00.780Z,4.9
2023-01-13T06:57:00.992Z,4.9
2023-01-13T06:58:01.013Z,4.9
2023-01-13T06:59:00.796Z,4.9
2023-01-13T07:00:00.885Z,4.9
2023-01-13T07:01:00.889Z,4.9
2023-01-13T07:02:01.781Z,4.9
2023-01-13T07:03:10.627Z,4.9
2023-01-13T07:04:00.780Z,4.9
2023-01-13T07:05:00.773Z,4.9
2023-01-13T07:06:00.895Z,4.1
2023-01-13T07:07:00.755Z,4.1
2023-01-13T07:08:00.831Z,4.1
2023-01-13T07:09:00.776Z,4.1
2023-01-13T07:10:00.745Z,4.1
2023-01-13T07:11:01.650Z,4.1
2023-01-13T07:12:01.045Z,4.1
2023-01-13T07:13:01.228Z,4.1
2023-01-13T07:14:00.790Z,4.1
2023-01-13T07:15:00.792Z,4.1
2023-01-13T07:16:02.180Z,3.8
2023-01-13T07:17:00.979Z,3.8
2023-01-13T07:18:01.281Z,3.8
2023-01-13T07:19:00.846Z,3.8
2023-01-13T07:20:00.801Z,3.8
2023-01-13T07:21:02.652Z,3.8
2023-01-13T07:22:00.907Z,3.8
2023-01-13T07:23:00.772Z,3.8
2023-01-13T07:24:00.756Z,3.8
2023-01-13T07:25:00.834Z,3.8
2023-01-13T07:26:00.771Z,4.2
2023-01-13T07:27:00.750Z,4.2
2023-01-13T07:28:00.875Z,4.2
2023-01-13T07:29:00.782Z,4.2
2023-01-13T07:30:01.013Z,4.2
2023-01-13T07:31:00.847Z,4.2
2023-01-13T07:32:00.830Z,4.2
2023-01-13T07:33:00.773Z,4.2
2023-01-13T07:34:00.806Z,4.2
2023-01-13T07:35:00.770Z,4.2
2023-01-13T07:36:01.864Z,4.0
2023-01-13T07:37:01.000Z,4.0
2023-01-13T07:38:00.767Z,4.0
2023-01-13T07:39:01.376Z,4.0
2023-01-13T07:40:01.585Z,4.0
2023-01-13T07:41:01.056Z,4.0
2023-01-13T07:42:00.819Z,4.0
2023-01-13T07:43:00.950Z,4.0
2023-01-13T07:44:03.256Z,4.0
2023-01-13T07:45:00.751Z,4.0
2023-01-13T07:46:02.425Z,4.6
2023-01-13T07:47:00.802Z,4.6
2023-01-13T07:48:00.858Z,4.6
2023-01-13T07:49:00.795Z,4.6
2023-01-13T07:50:01.054Z,4.6
2023-01-13T07:51:01.698Z,4.6
2023-01-13T07:52:00.999Z,4.6
2023-01-13T07:53:00.797Z,4.6
2023-01-13T07:54:00.837Z,4.6
2023-01-13T07:55:00.739Z,4.6
2023-01-13T07:56:01.406Z,5.0
2023-01-13T07:57:00.764Z,5.0
2023-01-13T07:58:00.747Z,5.0
2023-01-13T07:59:01.133Z,5.0
2023-01-13T08:00:01.213Z,5.0
2023-01-13T08:01:07.823Z,5.0
2023-01-13T08:02:01.075Z,5.0
2023-01-13T08:03:00.823Z,5.0
2023-01-13T08:04:00.804Z,5.0
2023-01-13T08:05:00.866Z,5.0
2023-01-13T08:06:01.139Z,5.3
2023-01-13T08:07:00.800Z,5.3
2023-01-13T08:08:00.932Z,5.3
2023-01-13T08:09:00.798Z,5.3
2023-01-13T08:10:01.304Z,5.3
2023-01-13T08:11:01.443Z,5.3
2023-01-13T08:12:00.964Z,5.3
2023-01-13T08:13:00.793Z,5.3
2023-01-13T08:14:01.009Z,5.3
2023-01-13T08:15:00.788Z,5.3
2023-01-13T08:16:03.112Z,4.9
2023-01-13T08:17:00.770Z,4.9
2023-01-13T08:18:00.811Z,4.9
2023-01-13T08:19:00.826Z,4.9
2023-01-13T08:20:01.036Z,4.9
2023-01-13T08:21:02.100Z,4.9
2023-01-13T08:22:01.013Z,4.9
2023-01-13T08:23:01.227Z,4.9
2023-01-13T08:24:00.753Z,4.9
2023-01-13T08:25:00.854Z,4.9
2023-01-13T08:26:03.732Z,4.6
2023-01-13T08:27:00.775Z,4.6
2023-01-13T08:28:00.817Z,4.6
2023-01-13T08:29:00.772Z,4.6
2023-01-13T08:30:00.795Z,4.6
2023-01-13T08:31:01.764Z,4.6
2023-01-13T08:32:00.748Z,4.6
2023-01-13T08:33:00.856Z,4.6
2023-01-13T08:34:00.982Z,4.6
2023-01-13T08:35:00.772Z,4.6
2023-01-13T08:36:02.974Z,4.3
2023-01-13T08:37:00.799Z,4.3
2023-01-13T08:38:00.781Z,4.3
2023-01-13T08:39:00.868Z,4.3
2023-01-13T08:40:00.786Z,4.3
2023-01-13T08:41:06.774Z,4.3
2023-01-13T08:42:01.362Z,4.3
2023-01-13T08:43:00.763Z,4.3
2023-01-13T08:44:00.752Z,4.3
2023-01-13T08:45:00.951Z,4.3
2023-01-13T08:46:01.579Z,3.2
2023-01-13T08:47:02.745Z,3.2
2023-01-13T08:48:01.058Z,3.2
2023-01-13T08:49:01.041Z,3.2
2023-01-13T08:50:00.784Z,3.2
2023-01-13T08:51:02.545Z,3.2
2023-01-13T08:52:00.832Z,3.2
2023-01-13T08:53:00.767Z,3.2
2023-01-13T08:54:00.733Z,3.2
2023-01-13T08:55:00.799Z,3.2
2023-01-13T08:56:00.967Z,2.8
2023-01-13T08:57:00.945Z,2.8
2023-01-13T08:58:14.477Z,2.8
2023-01-13T08:59:01.064Z,2.8
2023-01-13T09:00:01.006Z,2.8
2023-01-13T09:01:04.598Z,2.8
2023-01-13T09:02:01.011Z,2.8
2023-01-13T09:03:00.882Z,2.8
2023-01-13T09:04:00.883Z,2.8
2023-01-13T09:05:01.213Z,2.8
2023-01-13T09:06:00.978Z,2.0
2023-01-13T09:07:01.100Z,2.0
2023-01-13T09:08:00.767Z,2.0
2023-01-13T09:09:00.830Z,2.0
2023-01-13T09:10:01.069Z,2.0
2023-01-13T09:11:00.930Z,2.0
2023-01-13T09:12:00.774Z,2.0
2023-01-13T09:13:00.802Z,2.0
2023-01-13T09:14:03.211Z,2.0
2023-01-13T09:15:01.244Z,2.0
2023-01-13T09:16:00.815Z,1.7
2023-01-13T09:17:00.961Z,1.7
2023-01-13T09:18:00.960Z,1.7
2023-01-13T09:19:00.754Z,1.7
2023-01-13T09:20:00.746Z,1.7
2023-01-13T09:21:00.811Z,1.7
2023-01-13T09:22:00.885Z,1.7
2023-01-13T09:23:00.874Z,1.7
2023-01-13T09:24:00.851Z,1.7
2023-01-13T09:25:00.786Z,1.7
2023-01-13T09:26:00.754Z,1.8
2023-01-13T09:27:00.813Z,1.8
2023-01-13T09:28:00.768Z,1.8
2023-01-13T09:29:00.926Z,1.8
2023-01-13T09:30:00.777Z,1.8
2023-01-13T09:31:00.819Z,1.8
2023-01-13T09:32:00.788Z,1.8
2023-01-13T09:33:01.329Z,1.8
2023-01-13T09:34:01.461Z,1.8
2023-01-13T09:35:00.796Z,1.8
2023-01-13T09:36:00.793Z,2.0
2023-01-13T09:37:01.142Z,2.0
2023-01-13T09:38:00.790Z,2.0
2023-01-13T09:39:00.857Z,2.0
2023-01-13T09:40:06.354Z,2.0
2023-01-13T09:41:00.852Z,2.0
2023-01-13T09:42:03.898Z,2.0
2023-01-13T09:43:04.501Z,2.0
2023-01-13T09:44:01.648Z,2.0
2023-01-13T09:45:05.415Z,2.0
2023-01-13T09:46:04.559Z,1.7
2023-01-13T09:47:02.617Z,1.7
2023-01-13T09:48:05.094Z,1.7
2023-01-13T09:49:01.250Z,1.7
2023-01-13T09:50:07.220Z,1.7
2023-01-13T09:51:10.693Z,1.7
2023-01-13T09:52:04.292Z,1.7
2023-01-13T09:53:00.879Z,1.7
2023-01-13T09:54:05.930Z,1.7
2023-01-13T09:55:01.799Z,1.7
2023-01-13T09:56:00.814Z,2.2
2023-01-13T09:57:01.039Z,2.2
2023-01-13T09:58:01.598Z,2.2
2023-01-13T09:59:00.765Z,2.2
2023-01-13T10:00:01.131Z,2.2
2023-01-13T10:01:00.796Z,2.2
2023-01-13T10:02:10.625Z,2.2
2023-01-13T10:03:00.763Z,2.2
2023-01-13T10:04:03.466Z,2.2
2023-01-13T10:05:03.578Z,2.2
2023-01-13T10:06:10.650Z,2.3
2023-01-13T10:07:01.541Z,2.3
2023-01-13T10:08:04.407Z,2.3
2023-01-13T10:09:01.059Z,2.3
2023-01-13T10:10:01.870Z,2.3
2023-01-13T10:11:04.526Z,2.3
2023-01-13T10:12:01.445Z,2.3
2023-01-13T10:13:01.703Z,2.3
2023-01-13T10:14:02.362Z,2.3
2023-01-13T10:15:00.878Z,2.3
2023-01-13T10:16:10.784Z,2.4
2023-01-13T10:17:01.852Z,2.4
2023-01-13T10:18:10.648Z,2.4
2023-01-13T10:19:00.768Z,2.4
2023-01-13T10:20:10.637Z,2.4
2023-01-13T10:21:06.835Z,2.4
2023-01-13T10:22:10.805Z,2.4
2023-01-13T10:23:10.634Z,2.4
2023-01-13T10:24:02.761Z,2.4
2023-01-13T10:25:01.894Z,2.4
2023-01-13T10:26:10.707Z,2.6
2023-01-13T10:27:04.453Z,2.6
2023-01-13T10:28:01.931Z,2.6
2023-01-13T10:29:00.882Z,2.6
2023-01-13T10:30:10.647Z,2.6
2023-01-13T10:31:04.180Z,2.6
2023-01-13T10:32:00.802Z,2.6
2023-01-13T10:33:05.314Z,2.6
2023-01-13T10:34:02.078Z,2.6
2023-01-13T10:35:00.763Z,2.6
2023-01-13T10:36:01.828Z,2.8
2023-01-13T10:37:00.735Z,2.8
2023-01-13T10:38:00.788Z,2.8
2023-01-13T10:39:09.723Z,2.8
2023-01-13T10:40:01.291Z,2.8
2023-01-13T10:41:02.729Z,2.8
2023-01-13T10:42:01.620Z,2.8
2023-01-13T10:43:04.618Z,2.8
2023-01-13T10:44:03.942Z,2.8
2023-01-13T10:45:01.332Z,2.8
2023-01-13T10:46:03.931Z,2.0
2023-01-13T10:47:00.751Z,2.0
2023-01-13T10:48:04.311Z,2.0
2023-01-13T10:49:02.468Z,2.0
2023-01-13T10:50:04.181Z,2.0
2023-01-13T10:51:10.661Z,2.0
2023-01-13T10:52:01.428Z,2.0
2023-01-13T10:53:02.614Z,2.0
2023-01-13T10:54:02.063Z,2.0
2023-01-13T10:55:00.876Z,2.0
2023-01-13T10:56:02.493Z,7.4
2023-01-13T10:57:10.675Z,7.4
2023-01-13T10:58:10.645Z,7.4
2023-01-13T10:59:10.666Z,7.4
2023-01-13T11:00:02.281Z,7.4
2023-01-13T11:01:03.851Z,7.4
2023-01-13T11:02:05.597Z,7.4
2023-01-13T11:03:10.671Z,7.4
2023-01-13T11:04:00.780Z,7.4
2023-01-13T11:05:02.811Z,7.4
2023-01-13T11:06:01.166Z,7.2
2023-01-13T11:07:02.194Z,7.2
2023-01-13T11:08:00.780Z,7.2
2023-01-13T11:09:00.827Z,7.2
2023-01-13T11:10:08.142Z,7.2
2023-01-13T11:11:00.812Z,7.2
2023-01-13T11:12:00.806Z,7.2
2023-01-13T11:13:04.344Z,7.2
2023-01-13T11:14:02.063Z,7.2
2023-01-13T11:15:03.240Z,7.2
2023-01-13T11:16:04.518Z,8.0
2023-01-13T11:17:10.626Z,8.0
2023-01-13T11:18:02.423Z,8.0
2023-01-13T11:19:05.578Z,8.0
2023-01-13T11:20:10.672Z,8.0
2023-01-13T11:21:03.774Z,8.0
2023-01-13T11:22:08.407Z,8.0
2023-01-13T11:23:04.239Z,8.0
2023-01-13T11:24:10.792Z,8.0
2023-01-13T11:25:02.250Z,8.0
2023-01-13T11:26:03.324Z,8.2
2023-01-13T11:27:03.339Z,8.2
2023-01-13T11:28:05.161Z,8.2
2023-01-13T11:29:09.461Z,8.2
2023-01-13T11:30:08.786Z,8.2
2023-01-13T11:31:07.518Z,8.2
2023-01-13T11:32:10.668Z,8.2
2023-01-13T11:33:10.651Z,8.2
2023-01-13T11:34:10.693Z,8.2
2023-01-13T11:35:03.367Z,8.2
2023-01-13T11:36:07.405Z,7.9
2023-01-13T11:37:06.234Z,7.9
2023-01-13T11:38:05.568Z,7.9
2023-01-13T11:39:10.684Z,7.9
2023-01-13T11:40:10.685Z,7.9
2023-01-13T11:41:07.748Z,7.9
2023-01-13T11:42:02.314Z,7.9
2023-01-13T11:43:05.806Z,7.9
2023-01-13T11:44:10.665Z,7.9
2023-01-13T11:45:10.629Z,7.9
2023-01-13T11:46:00.956Z,6.3
2023-01-13T11:47:00.871Z,6.3
2023-01-13T11:48:01.589Z,6.3
2023-01-13T11:49:01.745Z,6.3
2023-01-13T11:50:01.562Z,6.3
2023-01-13T11:51:07.377Z,6.3
2023-01-13T11:52:10.653Z,6.3
2023-01-13T11:53:10.809Z,6.3
2023-01-13T11:54:01.794Z,6.3
2023-01-13T11:55:08.849Z,6.3
2023-01-13T11:56:10.651Z,5.2
2023-01-13T11:57:10.667Z,5.2
2023-01-13T11:58:10.722Z,5.2
2023-01-13T11:59:08.184Z,5.2
2023-01-13T12:00:10.657Z,5.2
2023-01-13T12:01:10.692Z,5.2
2023-01-13T12:02:01.845Z,5.2
2023-01-13T12:03:04.129Z,5.2
2023-01-13T12:04:09.534Z,5.2
2023-01-13T12:05:01.910Z,5.2
2023-01-13T12:06:06.082Z,4.5
2023-01-13T12:07:01.792Z,4.5
2023-01-13T12:08:00.751Z,4.5
2023-01-13T12:09:09.721Z,4.5
2023-01-13T12:10:13.517Z,4.5
2023-01-13T12:11:01.771Z,4.5
2023-01-13T12:12:06.063Z,4.5
2023-01-13T12:13:10.633Z,4.5
2023-01-13T12:14:08.358Z,4.5
2023-01-13T12:15:04.248Z,4.5
2023-01-13T12:16:10.703Z,4.8
2023-01-13T12:17:03.648Z,4.8
2023-01-13T12:18:00.767Z,4.8
2023-01-13T12:19:10.651Z,4.8
2023-01-13T12:20:10.689Z,4.8
2023-01-13T12:21:04.320Z,4.8
2023-01-13T12:22:01.815Z,4.8
2023-01-13T12:23:03.117Z,4.8
2023-01-13T12:24:10.628Z,4.8
2023-01-13T12:25:04.703Z,4.8
2023-01-13T12:26:05.366Z,5.1
2023-01-13T12:27:04.973Z,5.1
2023-01-13T12:28:10.621Z,5.1
2023-01-13T12:29:04.978Z,5.1
2023-01-13T12:30:02.445Z,5.1
2023-01-13T12:31:01.613Z,5.1
2023-01-13T12:32:02.819Z,5.1
2023-01-13T12:33:05.741Z,5.1
2023-01-13T12:34:10.622Z,5.1
2023-01-13T12:35:07.602Z,5.1
2023-01-13T12:36:09.809Z,5.2
2023-01-13T12:37:00.765Z,5.2
2023-01-13T12:38:07.097Z,5.2
2023-01-13T12:39:10.631Z,5.2
2023-01-13T12:40:10.677Z,5.2
2023-01-13T12:41:00.765Z,5.2
2023-01-13T12:42:10.651Z,5.2
2023-01-13T12:43:10.684Z,5.2
2023-01-13T12:44:01.569Z,5.2
2023-01-13T12:45:10.707Z,5.2
2023-01-13T12:46:10.710Z,4.5
2023-01-13T12:47:00.830Z,4.5
2023-01-13T12:48:00.785Z,4.5
2023-01-13T12:49:00.930Z,4.5
2023-01-13T12:50:10.608Z,4.5
2023-01-13T12:51:00.994Z,4.5
2023-01-13T12:52:01.814Z,4.5
2023-01-13T12:53:10.629Z,4.5
2023-01-13T12:54:01.747Z,4.5
2023-01-13T12:55:01.780Z,4.5
2023-01-13T12:56:10.656Z,4.4
2023-01-13T12:57:10.673Z,4.4
2023-01-13T12:58:04.138Z,4.4
2023-01-13T12:59:10.647Z,4.4
2023-01-13T13:00:01.819Z,4.4
2023-01-13T13:01:10.142Z,4.4
2023-01-13T13:02:08.563Z,4.4
2023-01-13T13:03:10.663Z,4.4
2023-01-13T13:04:09.675Z,4.4
2023-01-13T13:05:10.632Z,4.4
2023-01-13T13:06:00.767Z,4.4
2023-01-13T13:07:10.807Z,4.2
2023-01-13T13:08:06.352Z,4.2
2023-01-13T13:09:04.064Z,4.2
2023-01-13T13:10:03.944Z,4.2
2023-01-13T13:11:01.795Z,4.2
2023-01-13T13:12:10.659Z,4.2
2023-01-13T13:13:02.183Z,4.2
2023-01-13T13:14:02.125Z,4.2
2023-01-13T13:15:03.557Z,4.2
2023-01-13T13:16:10.783Z,3.7
2023-01-13T13:17:00.800Z,3.7
2023-01-13T13:18:00.747Z,3.7
2023-01-13T13:19:10.664Z,3.7
2023-01-13T13:20:00.790Z,3.7
2023-01-13T13:21:08.421Z,3.7
2023-01-13T13:22:10.635Z,3.7
2023-01-13T13:23:00.812Z,3.7
2023-01-13T13:24:01.852Z,3.7
2023-01-13T13:25:03.426Z,3.7
2023-01-13T13:26:04.106Z,3.7
2023-01-13T13:27:10.631Z,3.5
2023-01-13T13:28:05.508Z,3.5
2023-01-13T13:29:10.649Z,3.5
2023-01-13T13:30:08.453Z,3.5
2023-01-13T13:31:07.853Z,3.5
2023-01-13T13:32:10.796Z,3.5
2023-01-13T13:33:08.140Z,3.5
2023-01-13T13:34:00.743Z,3.5
2023-01-13T13:35:10.798Z,3.5
2023-01-13T13:36:01.817Z,3.5
2023-01-13T13:37:00.735Z,3.2
2023-01-13T13:38:00.785Z,3.2
2023-01-13T13:39:01.782Z,3.2
2023-01-13T13:40:07.668Z,3.2
2023-01-13T13:41:04.605Z,3.2
2023-01-13T13:42:08.875Z,3.2
2023-01-13T13:43:02.212Z,3.2
2023-01-13T13:44:09.754Z,3.2
2023-01-13T13:45:01.942Z,3.2
2023-01-13T13:46:00.836Z,3.2
2023-01-13T13:47:01.801Z,3.0
2023-01-13T13:48:10.680Z,3.0
2023-01-13T13:49:00.757Z,3.0
2023-01-13T13:50:05.046Z,3.0
2023-01-13T13:51:01.860Z,3.0
2023-01-13T13:52:03.071Z,3.0
2023-01-13T13:53:02.697Z,3.0
2023-01-13T13:54:00.823Z,3.0
2023-01-13T13:55:06.497Z,3.0